createdAt,value
2019-06-01T00:01:17.690Z,8.20
2019-06-01T00:03:46.497Z,7.00
2019-06-01T00:06:14.170Z,9.00
2019-06-01T00:08:44.993Z,4.60
2019-06-01T00:11:15.726Z,8.20
2019-06-01T00:13:47.692Z,7.80
2019-06-01T00:16:15.346Z,7.00
2019-06-01T00:18:43.995Z,8.60
2019-06-01T00:21:14.824Z,7.00
2019-06-01T00:23:44.943Z,8.20
2019-06-01T00:26:14.671Z,10.00
2019-06-01T00:28:47.895Z,9.40
2019-06-01T00:31:16.777Z,9.20
2019-06-01T00:33:47.320Z,10.00
2019-06-01T00:36:21.254Z,10.00
2019-06-01T00:38:52.052Z,7.80
2019-06-01T00:41:22.488Z,6.20
2019-06-01T00:43:50.579Z,8.80
2019-06-01T00:46:19.474Z,9.00
2019-06-01T00:48:48.173Z,8.20
2019-06-01T00:51:21.489Z,7.00
2019-06-01T00:53:51.894Z,4.00
2019-06-01T00:56:19.986Z,9.00
2019-06-01T00:58:47.887Z,9.60
2019-06-01T01:01:15.850Z,7.00
2019-06-01T01:03:43.961Z,9.60
2019-06-01T01:06:11.800Z,6.80
2019-06-01T01:08:39.396Z,9.00
2019-06-01T01:11:08.893Z,7.00
2019-06-01T01:13:38.491Z,9.00
2019-06-01T01:16:05.980Z,6.60
2019-06-01T01:18:33.611Z,8.40
2019-06-01T01:21:01.624Z,9.00
2019-06-01T01:23:29.579Z,10.00
2019-06-01T01:25:58.583Z,4.40
2019-06-01T01:28:29.254Z,6.40
2019-06-01T01:31:11.703Z,9.80
2019-06-01T01:33:27.855Z,6.60
2019-06-01T01:35:55.823Z,6.20
2019-06-01T01:38:27.354Z,8.60
2019-06-01T01:40:56.169Z,7.00
2019-06-01T01:43:23.901Z,8.20
2019-06-01T01:45:52.739Z,11.80
2019-06-01T01:48:20.357Z,9.20
2019-06-01T01:50:47.913Z,1.00
2019-06-01T01:53:15.642Z,3.00
2019-06-01T01:55:43.723Z,8.60
2019-06-01T01:58:11.591Z,9.00
2019-06-01T02:00:39.769Z,9.00
2019-06-01T02:03:07.364Z,8.60
2019-06-01T02:05:35.474Z,8.20
2019-06-01T02:08:03.270Z,9.00
2019-06-01T02:10:30.927Z,11.60
2019-06-01T02:12:59.633Z,7.40
2019-06-01T02:15:30.675Z,7.80
2019-06-01T02:17:58.295Z,7.40
2019-06-01T02:20:26.269Z,7.00
2019-06-01T02:22:54.703Z,9.60
2019-06-01T02:25:22.851Z,7.00
2019-06-01T02:27:50.629Z,7.00
2019-06-01T02:30:18.384Z,9.20
2019-06-01T02:32:46.248Z,9.00
2019-06-01T02:35:14.518Z,6.80
2019-06-01T02:37:42.382Z,8.40
2019-06-01T02:40:10.183Z,6.00
2019-06-01T02:42:38.525Z,9.60
2019-06-01T02:45:06.398Z,8.20
2019-06-01T02:47:34.150Z,6.00
2019-06-01T02:50:04.254Z,6.60
2019-06-01T02:52:32.154Z,9.00
2019-06-01T02:54:59.962Z,9.00
2019-06-01T02:57:30.855Z,6.80
2019-06-01T02:59:58.718Z,7.40
2019-06-01T03:02:26.995Z,6.60
2019-06-01T03:04:54.864Z,9.40
2019-06-01T03:07:22.734Z,10.00
2019-06-01T03:09:50.584Z,4.00
2019-06-01T03:12:18.874Z,8.60
2019-06-01T03:14:46.734Z,6.20
2019-06-01T03:17:14.599Z,5.20
2019-06-01T03:19:42.325Z,6.80
2019-06-01T03:22:10.386Z,9.20
2019-06-01T03:24:38.251Z,8.60
2019-06-01T03:27:06.580Z,7.40
2019-06-01T03:29:34.371Z,9.00
2019-06-01T03:32:23.940Z,8.20
2019-06-01T03:34:32.117Z,6.00
2019-06-01T03:37:00.986Z,5.60
2019-06-01T03:39:29.326Z,7.00
2019-06-01T03:41:57.151Z,6.00
2019-06-01T03:44:25.028Z,4.40
2019-06-01T03:46:53.301Z,6.80
2019-06-01T03:49:23.226Z,8.20
2019-06-01T03:51:51.179Z,7.40
2019-06-01T03:54:19.560Z,7.00
2019-06-01T03:56:47.431Z,7.40
2019-06-01T03:59:15.186Z,9.20
2019-06-01T04:01:43.062Z,8.60
2019-06-01T04:04:11.544Z,7.00
2019-06-01T04:06:48.372Z,7.80
2019-06-01T04:09:16.130Z,9.40
2019-06-01T04:11:45.987Z,9.20
2019-06-01T04:14:13.854Z,9.40
2019-06-01T04:16:44.713Z,6.60
2019-06-01T04:19:14.411Z,7.40
2019-06-01T04:21:42.278Z,6.00
2019-06-01T04:24:10.268Z,9.60
2019-06-01T04:26:38.628Z,9.40
2019-06-01T04:29:06.624Z,7.80
2019-06-01T04:31:34.346Z,9.60
2019-06-01T04:34:02.488Z,9.80
2019-06-01T04:36:30.779Z,9.20
2019-06-01T04:38:59.655Z,9.00
2019-06-01T04:41:27.380Z,3.20
2019-06-01T04:43:55.147Z,10.80
2019-06-01T04:46:23.300Z,10.00
2019-06-01T04:48:51.089Z,10.00
2019-06-01T04:51:18.946Z,7.00
2019-06-01T04:53:46.796Z,8.20
2019-06-01T04:56:15.317Z,9.20
2019-06-01T04:58:43.253Z,6.80
2019-06-01T05:01:11.001Z,4.00
2019-06-01T05:03:38.873Z,8.60
2019-06-01T05:06:07.278Z,9.00
2019-06-01T05:08:35.013Z,11.60
2019-06-01T05:11:05.228Z,11.80
2019-06-01T05:13:32.903Z,11.60
2019-06-01T05:16:00.619Z,10.40
2019-06-01T05:18:28.949Z,10.80
2019-06-01T05:20:56.813Z,13.00
2019-06-01T05:23:27.620Z,12.80
2019-06-01T05:25:56.194Z,12.20
2019-06-01T05:28:26.145Z,11.60
2019-06-01T05:30:57.288Z,9.00
2019-06-01T05:33:36.985Z,11.20
2019-06-01T05:35:54.670Z,10.40
2019-06-01T05:38:22.971Z,13.40
2019-06-01T05:40:52.002Z,12.00
2019-06-01T05:43:21.308Z,9.60
2019-06-01T05:45:52.363Z,9.40
2019-06-01T05:48:25.082Z,11.80
2019-06-01T05:50:49.558Z,11.60
2019-06-01T05:53:19.763Z,12.00
2019-06-01T05:55:47.691Z,10.00
2019-06-01T05:58:17.121Z,9.20
2019-06-01T06:00:45.098Z,12.60
2019-06-01T06:03:16.215Z,10.00
2019-06-01T06:05:43.792Z,9.00
2019-06-01T06:08:12.725Z,12.60
2019-06-01T06:10:42.839Z,10.00
2019-06-01T06:13:11.135Z,11.20
2019-06-01T06:15:41.182Z,12.60
2019-06-01T06:18:09.350Z,8.60
2019-06-01T06:20:37.101Z,10.40
2019-06-01T06:23:07.296Z,6.00
2019-06-01T06:25:38.302Z,9.20
2019-06-01T06:28:05.346Z,9.80
2019-06-01T06:30:33.141Z,7.00
2019-06-01T06:33:06.185Z,9.20
2019-06-01T06:38:09.658Z,9.00
2019-06-01T06:40:37.380Z,8.60
2019-06-01T06:43:18.639Z,9.40
2019-06-01T06:45:34.979Z,5.20
2019-06-01T06:48:07.369Z,5.20
2019-06-01T06:50:39.532Z,5.80
2019-06-01T06:53:06.299Z,8.00
2019-06-01T06:55:35.403Z,5.80
2019-06-01T06:58:03.660Z,8.00
2019-06-01T07:00:31.712Z,8.00
2019-06-01T07:03:01.845Z,5.40
2019-06-01T07:05:31.805Z,8.00
2019-06-01T07:07:59.806Z,8.00
2019-06-01T07:10:28.332Z,8.00
2019-06-01T07:12:56.137Z,7.00
2019-06-01T07:15:25.447Z,5.40
2019-06-01T07:17:53.240Z,7.00
2019-06-01T07:20:21.528Z,5.40
2019-06-01T07:22:49.690Z,4.40
2019-06-01T07:25:17.567Z,4.00
2019-06-01T07:27:45.260Z,5.00
2019-06-01T07:30:14.579Z,5.80
2019-06-01T07:32:42.344Z,3.20
2019-06-01T07:35:10.088Z,0.00
2019-06-01T07:37:40.971Z,7.00
2019-06-01T07:40:13.164Z,5.00
2019-06-01T07:42:38.365Z,5.00
2019-06-01T07:45:07.712Z,5.00
2019-06-01T07:47:36.716Z,6.60
2019-06-01T07:50:05.529Z,4.00
2019-06-01T07:52:36.792Z,5.00
2019-06-01T07:55:04.494Z,5.00
2019-06-01T07:57:32.269Z,4.80
2019-06-01T08:00:01.815Z,7.20
2019-06-01T08:02:30.766Z,4.60
2019-06-01T08:05:00.338Z,6.00
2019-06-01T08:07:29.242Z,8.00
2019-06-01T08:09:57.138Z,4.60
2019-06-01T08:12:29.874Z,5.20
2019-06-01T08:14:58.060Z,5.00
2019-06-01T08:17:26.089Z,6.40
2019-06-01T08:19:56.873Z,5.00
2019-06-01T08:22:25.970Z,4.80
2019-06-01T08:24:53.802Z,5.20
2019-06-01T08:27:22.420Z,5.00
2019-06-01T08:29:55.929Z,5.00
2019-06-01T08:32:24.534Z,5.80
2019-06-01T08:35:07.109Z,4.00
2019-06-01T08:37:23.522Z,6.20
2019-06-01T08:39:53.528Z,6.00
2019-06-01T08:42:21.299Z,5.00
2019-06-01T08:44:49.519Z,3.60
2019-06-01T08:47:17.301Z,5.80
2019-06-01T08:49:47.392Z,3.20
2019-06-01T08:52:17.584Z,5.00
2019-06-01T08:54:45.321Z,5.00
2019-06-01T08:57:14.213Z,4.60
2019-06-01T08:59:43.299Z,5.60
2019-06-01T09:02:11.111Z,3.40
2019-06-01T09:04:38.983Z,3.80
2019-06-01T09:07:07.195Z,3.40
2019-06-01T09:09:35.216Z,4.20
2019-06-01T09:12:05.370Z,5.20
2019-06-01T09:14:35.635Z,4.60
2019-06-01T09:17:03.451Z,3.80
2019-06-01T09:19:34.223Z,5.80
2019-06-01T09:22:07.507Z,5.80
2019-06-01T09:24:37.954Z,5.00
2019-06-01T09:27:08.581Z,5.00
2019-06-01T09:29:44.791Z,3.40
2019-06-01T09:34:52.520Z,5.80
2019-06-01T09:37:23.180Z,5.20
2019-06-01T09:39:50.889Z,6.60
2019-06-01T09:42:18.690Z,5.00
2019-06-01T09:44:46.825Z,6.00
2019-06-01T09:47:14.965Z,5.80
2019-06-01T09:49:42.684Z,5.00
2019-06-01T09:52:12.453Z,5.00
2019-06-01T09:54:40.277Z,2.00
2019-06-01T09:57:10.395Z,6.00
2019-06-01T09:59:38.267Z,6.40
2019-06-01T10:02:06.399Z,7.20
2019-06-01T10:04:34.457Z,7.00
2019-06-01T10:07:10.291Z,6.40
2019-06-01T10:09:38.366Z,6.60
2019-06-01T10:12:06.189Z,6.60
2019-06-01T10:14:39.395Z,6.60
2019-06-01T10:17:10.428Z,3.00
2019-06-01T10:19:38.876Z,6.00
2019-06-01T10:22:11.166Z,6.20
2019-06-01T10:24:42.188Z,6.00
2019-06-01T10:27:12.011Z,5.20
2019-06-01T10:29:40.128Z,4.80
2019-06-01T10:32:16.745Z,5.00
2019-06-01T10:34:44.856Z,5.00
2019-06-01T10:37:12.921Z,7.40
2019-06-01T10:39:41.413Z,5.40
2019-06-01T10:42:09.190Z,8.40
2019-06-01T10:44:41.775Z,5.20
2019-06-01T10:47:08.574Z,4.60
2019-06-01T10:49:38.525Z,6.20
2019-06-01T10:52:07.012Z,4.20
2019-06-01T10:54:36.030Z,5.00
2019-06-01T10:57:03.847Z,4.60
2019-06-01T10:59:32.252Z,5.00
2019-06-01T11:02:00.035Z,5.00
2019-06-01T11:04:27.840Z,4.00
2019-06-01T11:06:55.940Z,6.60
2019-06-01T11:09:23.790Z,5.40
2019-06-01T11:11:51.588Z,5.00
2019-06-01T11:14:19.783Z,5.00
2019-06-01T11:16:52.698Z,4.20
2019-06-01T11:19:19.802Z,5.80
2019-06-01T11:22:06.581Z,6.40
2019-06-01T11:24:37.188Z,5.20
2019-06-01T11:27:07.412Z,6.20
2019-06-01T11:29:41.185Z,6.80
2019-06-01T11:32:04.648Z,4.80
2019-06-01T11:34:33.896Z,7.00
2019-06-01T11:37:05.471Z,5.80
2019-06-01T11:39:31.181Z,5.80
2019-06-01T11:41:59.359Z,4.20
2019-06-01T11:44:27.164Z,6.60
2019-06-01T11:46:55.022Z,5.80
2019-06-01T11:49:25.907Z,5.80
2019-06-01T11:51:56.135Z,6.40
2019-06-01T11:54:27.201Z,6.60
2019-06-01T11:56:56.889Z,5.00
2019-06-01T11:59:24.638Z,5.40
2019-06-01T12:01:55.373Z,5.80
2019-06-01T12:04:25.180Z,6.00
2019-06-01T12:07:13.483Z,4.00
2019-06-01T12:09:25.250Z,5.40
2019-06-01T12:11:57.799Z,6.40
2019-06-01T12:14:25.589Z,7.00
2019-06-01T12:16:53.380Z,3.80
2019-06-01T12:19:21.478Z,6.80
2019-06-01T12:21:49.230Z,6.00
2019-06-01T12:24:18.373Z,7.00
2019-06-01T12:26:47.507Z,6.40
2019-06-01T12:29:17.372Z,4.00
2019-06-01T12:31:46.534Z,5.20
2019-06-01T12:34:14.801Z,5.60
2019-06-01T12:36:42.752Z,6.80
2019-06-01T12:39:12.841Z,6.00
2019-06-01T12:41:45.516Z,7.00
2019-06-01T12:44:15.844Z,7.00
2019-06-01T12:46:46.970Z,6.60
2019-06-01T12:49:14.945Z,7.00
2019-06-01T12:51:42.747Z,5.80
2019-06-01T12:54:10.865Z,6.60
2019-06-01T12:56:38.658Z,4.80
2019-06-01T12:59:22.720Z,7.00
2019-06-01T13:01:51.375Z,6.00
2019-06-01T13:04:19.152Z,6.00
2019-06-01T13:06:51.108Z,4.80
2019-06-01T13:09:21.056Z,6.00
2019-06-01T13:11:54.626Z,6.20
2019-06-01T13:14:25.120Z,7.00
2019-06-01T13:17:06.319Z,5.80
2019-06-01T13:19:22.740Z,6.00
2019-06-01T13:21:51.679Z,6.40
2019-06-01T13:24:19.544Z,7.00
2019-06-01T13:26:47.854Z,7.00
2019-06-01T13:29:15.751Z,6.00
2019-06-01T13:31:44.333Z,4.60
2019-06-01T13:34:15.435Z,6.60
2019-06-01T13:36:46.449Z,6.80
2019-06-01T13:39:17.388Z,6.00
2019-06-01T13:41:47.033Z,7.80
2019-06-01T13:44:14.930Z,7.20
2019-06-01T13:46:43.454Z,6.60
2019-06-01T13:49:14.464Z,5.00
2019-06-01T13:51:44.023Z,6.00
2019-06-01T13:54:11.849Z,4.80
2019-06-01T13:56:46.758Z,6.40
2019-06-01T13:59:16.037Z,6.60
2019-06-01T14:01:45.085Z,6.20
2019-06-01T14:04:13.327Z,6.20
2019-06-01T14:06:43.225Z,5.80
2019-06-01T14:09:13.739Z,7.20
2019-06-01T14:11:43.419Z,6.60
2019-06-01T14:14:13.885Z,5.20
2019-06-01T14:16:45.362Z,4.80
2019-06-01T14:19:13.761Z,5.40
2019-06-01T14:21:41.482Z,6.20
2019-06-01T14:24:09.279Z,7.00
2019-06-01T14:26:37.429Z,4.20
2019-06-01T14:29:07.475Z,6.00
2019-06-01T14:31:35.206Z,6.00
2019-06-01T14:34:07.370Z,9.00
2019-06-01T14:36:40.869Z,8.80
2019-06-01T14:39:08.548Z,7.00
2019-06-01T14:41:42.816Z,5.80
2019-06-01T14:44:10.542Z,7.20
2019-06-01T14:46:53.653Z,7.20
2019-06-01T14:49:11.238Z,5.80
2019-06-01T14:51:40.128Z,5.40
2019-06-01T14:54:07.838Z,3.60
2019-06-01T14:56:36.108Z,6.80
2019-06-01T14:59:08.698Z,6.20
2019-06-01T15:01:39.078Z,6.20
2019-06-01T15:04:10.197Z,5.60
2019-06-01T15:06:45.188Z,6.20
2019-06-01T15:09:23.221Z,5.00
2019-06-01T15:11:42.720Z,5.60
2019-06-01T15:14:10.431Z,6.20
2019-06-01T15:16:41.807Z,7.80
2019-06-01T15:19:12.834Z,10.80
2019-06-01T15:21:40.706Z,8.60
2019-06-01T15:24:11.255Z,8.40
2019-06-01T15:26:39.336Z,7.40
2019-06-01T15:29:07.313Z,9.00
2019-06-01T15:31:36.486Z,7.60
2019-06-01T15:34:08.080Z,9.00
2019-06-01T15:36:35.561Z,8.80
2019-06-01T15:39:03.305Z,8.80
2019-06-01T15:41:33.026Z,15.80
2019-06-01T15:44:02.386Z,11.60
2019-06-01T15:46:31.957Z,7.20
2019-06-01T15:49:05.873Z,7.00
2019-06-01T15:51:36.315Z,7.40
2019-06-01T15:54:04.045Z,8.00
2019-06-01T15:56:32.152Z,8.00
2019-06-01T15:59:02.884Z,7.20
2019-06-01T16:01:33.145Z,8.00
2019-06-01T16:04:01.413Z,8.00
2019-06-01T16:06:32.263Z,6.20
2019-06-01T16:08:59.967Z,6.80
2019-06-01T16:11:28.241Z,7.80
2019-06-01T16:13:59.622Z,7.60
2019-06-01T16:16:28.012Z,7.00
2019-06-01T16:19:04.864Z,7.60
2019-06-01T16:21:45.114Z,5.00
2019-06-01T16:24:00.486Z,7.80
2019-06-01T16:26:28.764Z,6.00
2019-06-01T16:28:58.472Z,5.40
2019-06-01T16:31:27.848Z,6.00
2019-06-01T16:33:56.577Z,7.00
2019-06-01T16:36:24.765Z,6.40
2019-06-01T16:38:52.498Z,7.40
2019-06-01T16:41:20.651Z,6.60
2019-06-01T16:43:52.643Z,6.00
2019-06-01T16:46:39.179Z,7.80
2019-06-01T16:49:09.234Z,6.80
2019-06-01T16:51:36.956Z,9.00
2019-06-01T16:54:06.723Z,7.60
2019-06-01T16:56:34.426Z,6.20
2019-06-01T16:59:02.369Z,9.00
2019-06-01T17:01:34.368Z,6.80
2019-06-01T17:04:06.688Z,8.80
2019-06-01T17:06:34.683Z,8.20
2019-06-01T17:09:03.769Z,9.40
2019-06-01T17:11:32.122Z,7.00
2019-06-01T17:14:00.787Z,7.00
2019-06-01T17:16:33.207Z,8.20
2019-06-01T17:19:01.325Z,6.60
2019-06-01T17:21:29.396Z,7.20
2019-06-01T17:23:57.436Z,3.60
2019-06-01T17:26:25.230Z,7.20
2019-06-01T17:28:53.497Z,7.00
2019-06-01T17:31:21.216Z,7.20
2019-06-01T17:33:52.014Z,13.40
2019-06-01T17:36:20.176Z,9.80
2019-06-01T17:38:47.944Z,7.40
2019-06-01T17:41:15.706Z,8.00
2019-06-01T17:43:43.911Z,8.20
2019-06-01T17:46:12.067Z,7.40
2019-06-01T17:48:42.842Z,6.60
2019-06-01T17:51:13.482Z,6.60
2019-06-01T17:53:41.269Z,6.80
2019-06-01T17:56:12.182Z,6.00
2019-06-01T17:58:41.875Z,4.80
2019-06-01T18:01:09.973Z,7.80
2019-06-01T18:03:37.805Z,8.00
2019-06-01T18:06:06.016Z,8.40
2019-06-01T18:08:33.725Z,6.20
2019-06-01T18:11:01.988Z,6.80
2019-06-01T18:13:31.718Z,6.00
2019-06-01T18:15:59.486Z,6.20
2019-06-01T18:18:27.205Z,8.40
2019-06-01T18:20:56.603Z,7.20
2019-06-01T18:23:27.211Z,6.60
2019-06-01T18:25:54.946Z,7.40
2019-06-01T18:28:23.247Z,7.00
2019-06-01T18:30:51.029Z,7.00
2019-06-01T18:33:19.204Z,6.40
2019-06-01T18:35:48.889Z,7.60
2019-06-01T18:38:16.686Z,7.60
2019-06-01T18:40:51.472Z,6.40
2019-06-01T18:43:19.596Z,8.00
2019-06-01T18:45:50.332Z,9.00
2019-06-01T18:48:18.409Z,6.80
2019-06-01T18:50:46.694Z,6.80
2019-06-01T18:53:16.078Z,7.00
2019-06-01T18:55:43.814Z,9.80
2019-06-01T18:58:12.557Z,7.00
2019-06-01T19:00:40.390Z,5.00
2019-06-01T19:03:09.022Z,6.80
2019-06-01T19:05:37.362Z,9.20
2019-06-01T19:08:05.570Z,9.00
2019-06-01T19:10:42.554Z,10.00
2019-06-01T19:13:11.713Z,11.20
2019-06-01T19:15:41.203Z,12.00
2019-06-01T19:18:10.340Z,16.40
2019-06-01T19:20:40.898Z,12.60
2019-06-01T19:23:08.791Z,12.00
2019-06-01T19:25:38.155Z,10.00
2019-06-01T19:28:08.855Z,10.20
2019-06-01T19:30:49.231Z,9.40
2019-06-01T19:33:14.197Z,8.00
2019-06-01T19:35:40.668Z,8.40
2019-06-01T19:38:09.108Z,11.20
2019-06-01T19:40:38.369Z,9.40
2019-06-01T19:43:09.412Z,8.20
2019-06-01T19:45:47.355Z,8.00
2019-06-01T19:48:16.516Z,10.60
2019-06-01T19:50:44.539Z,10.20
2019-06-01T19:53:14.809Z,13.20
2019-06-01T19:55:42.714Z,11.00
2019-06-01T19:58:11.961Z,13.60
2019-06-01T20:00:40.227Z,8.20
2019-06-01T20:03:08.034Z,14.20
2019-06-01T20:05:35.773Z,12.40
2019-06-01T20:08:06.581Z,12.00
2019-06-01T20:10:34.356Z,11.20
2019-06-01T20:13:05.144Z,11.20
2019-06-01T20:15:37.387Z,12.00
2019-06-01T20:18:25.542Z,11.80
2019-06-01T20:20:56.461Z,12.20
2019-06-01T20:23:24.243Z,11.60
2019-06-01T20:25:53.321Z,12.60
2019-06-01T20:28:21.762Z,11.00
2019-06-01T20:30:49.574Z,13.60
2019-06-01T20:33:18.302Z,13.60
2019-06-01T20:35:48.152Z,7.00
2019-06-01T20:38:16.605Z,11.00
2019-06-01T20:40:48.314Z,11.80
2019-06-01T20:43:20.835Z,11.40
2019-06-01T20:45:49.716Z,11.00
2019-06-01T20:48:18.826Z,12.60
2019-06-01T20:50:46.862Z,13.40
2019-06-01T20:53:14.908Z,13.60
2019-06-01T20:55:43.196Z,11.40
2019-06-01T20:58:11.005Z,11.60
2019-06-01T21:00:38.845Z,9.60
2019-06-01T21:03:17.714Z,13.00
2019-06-01T21:05:37.757Z,13.60
2019-06-01T21:08:06.344Z,13.40
2019-06-01T21:10:34.568Z,14.20
2019-06-01T21:13:07.780Z,14.20
2019-06-01T21:15:35.775Z,12.00
2019-06-01T21:18:05.440Z,12.00
2019-06-01T21:20:36.036Z,13.00
2019-06-01T21:23:06.989Z,12.40
2019-06-01T21:25:34.766Z,11.20
2019-06-01T21:28:02.569Z,12.60
2019-06-01T21:30:30.771Z,10.40
2019-06-01T21:33:00.221Z,13.00
2019-06-01T21:35:30.547Z,12.60
2019-06-01T21:37:58.612Z,12.20
2019-06-01T21:40:32.375Z,9.20
2019-06-01T21:43:07.312Z,10.00
2019-06-01T21:45:30.045Z,12.00
2019-06-01T21:47:57.851Z,10.00
2019-06-01T21:50:27.242Z,12.60
2019-06-01T21:52:55.507Z,11.20
2019-06-01T21:55:24.463Z,11.20
2019-06-01T21:57:52.677Z,12.00
2019-06-01T22:00:22.628Z,13.00
2019-06-01T22:02:50.399Z,15.00
2019-06-01T22:05:18.665Z,11.80
2019-06-01T22:07:48.618Z,13.40
2019-06-01T22:10:17.075Z,15.00
2019-06-01T22:12:47.479Z,18.80
2019-06-01T22:15:19.441Z,17.20
2019-06-01T22:17:51.514Z,15.40
2019-06-01T22:20:28.624Z,21.00
2019-06-01T22:22:59.351Z,16.00
2019-06-01T22:25:31.431Z,15.60
2019-06-01T22:27:56.739Z,17.20
2019-06-01T22:30:24.825Z,17.20
2019-06-01T22:32:55.233Z,16.40
2019-06-01T22:35:24.649Z,18.00
2019-06-01T22:37:52.483Z,21.00
2019-06-01T22:40:20.875Z,18.00
2019-06-01T22:42:51.639Z,18.20
2019-06-01T22:45:22.458Z,15.80
2019-06-01T22:47:50.263Z,17.60
2019-06-01T22:50:18.303Z,20.20
2019-06-01T22:52:46.418Z,18.00
2019-06-01T22:55:14.605Z,18.40
2019-06-01T22:57:43.360Z,18.60
2019-06-01T23:00:15.889Z,19.20
2019-06-01T23:02:47.004Z,17.80
2019-06-01T23:05:14.810Z,18.40
2019-06-01T23:07:44.426Z,21.00
2019-06-01T23:10:12.644Z,18.00
2019-06-01T23:12:40.413Z,16.80
2019-06-01T23:15:08.434Z,19.40
2019-06-01T23:17:38.150Z,19.80
2019-06-01T23:20:06.012Z,17.20
2019-06-01T23:22:33.890Z,18.60
2019-06-01T23:25:02.154Z,17.80
2019-06-01T23:27:31.091Z,17.20
2019-06-01T23:29:59.231Z,20.20
2019-06-01T23:32:28.497Z,19.80
2019-06-01T23:35:06.146Z,19.40
2019-06-01T23:37:36.830Z,15.40
2019-06-01T23:40:04.728Z,17.60
2019-06-01T23:42:32.933Z,17.20
2019-06-01T23:45:01.283Z,17.20
2019-06-01T23:47:29.390Z,16.80
2019-06-01T23:49:58.443Z,15.40
2019-06-01T23:52:27.437Z,17.80
2019-06-01T23:54:57.708Z,16.80
2019-06-01T23:57:25.744Z,17.60
2019-06-01T23:59:53.520Z,15.80
